sensor_id;sensor_type;location;lat;lon;timestamp;P1;durP1;ratioP1;P2;durP2;ratioP2
38785;SDS011;24535;45.508;12.252;2023-01-05T00:00:22;61.88;;;50.67;;
38785;SDS011;24535;45.508;12.252;2023-01-05T00:02:47;59.40;;;51.95;;
38785;SDS011;24535;45.508;12.252;2023-01-05T00:05:12;61.97;;;52.90;;
38785;SDS011;24535;45.508;12.252;2023-01-05T00:07:38;59.05;;;51.20;;
38785;SDS011;24535;45.508;12.252;2023-01-05T00:10:03;59.97;;;52.45;;
38785;SDS011;24535;45.508;12.252;2023-01-05T00:12:49;59.88;;;51.53;;
38785;SDS011;24535;45.508;12.252;2023-01-05T00:15:33;59.28;;;52.47;;
38785;SDS011;24535;45.508;12.252;2023-01-05T00:18:17;60.53;;;51.28;;
38785;SDS011;24535;45.508;12.252;2023-01-05T00:21:01;59.55;;;49.65;;
38785;SDS011;24535;45.508;12.252;2023-01-05T00:23:46;66.90;;;52.92;;
38785;SDS011;24535;45.508;12.252;2023-01-05T00:26:11;70.30;;;54.17;;
38785;SDS011;24535;45.508;12.252;2023-01-05T00:28:42;64.05;;;51.20;;
38785;SDS011;24535;45.508;12.252;2023-01-05T00:31:08;53.45;;;45.35;;
38785;SDS011;24535;45.508;12.252;2023-01-05T00:33:33;65.80;;;52.78;;
38785;SDS011;24535;45.508;12.252;2023-01-05T00:35:59;60.80;;;50.97;;
38785;SDS011;24535;45.508;12.252;2023-01-05T00:38:24;61.25;;;49.50;;
38785;SDS011;24535;45.508;12.252;2023-01-05T00:40:50;61.65;;;50.55;;
38785;SDS011;24535;45.508;12.252;2023-01-05T00:43:15;57.22;;;50.40;;
38785;SDS011;24535;45.508;12.252;2023-01-05T00:45:41;55.17;;;44.97;;
38785;SDS011;24535;45.508;12.252;2023-01-05T00:48:08;47.50;;;42.33;;
38785;SDS011;24535;45.508;12.252;2023-01-05T00:50:33;54.03;;;48.03;;
38785;SDS011;24535;45.508;12.252;2023-01-05T00:52:58;52.75;;;47.08;;
38785;SDS011;24535;45.508;12.252;2023-01-05T00:55:24;52.95;;;44.80;;
38785;SDS011;24535;45.508;12.252;2023-01-05T00:57:49;47.92;;;41.15;;
38785;SDS011;24535;45.508;12.252;2023-01-05T01:00:16;53.67;;;47.20;;
38785;SDS011;24535;45.508;12.252;2023-01-05T01:02:43;53.58;;;47.88;;
38785;SDS011;24535;45.508;12.252;2023-01-05T01:05:09;55.00;;;49.05;;
38785;SDS011;24535;45.508;12.252;2023-01-05T01:07:35;61.47;;;53.95;;
38785;SDS011;24535;45.508;12.252;2023-01-05T01:10:01;59.88;;;53.33;;
38785;SDS011;24535;45.508;12.252;2023-01-05T01:12:26;55.00;;;48.53;;
38785;SDS011;24535;45.508;12.252;2023-01-05T01:14:52;59.22;;;52.42;;
38785;SDS011;24535;45.508;12.252;2023-01-05T01:17:17;59.28;;;48.92;;
38785;SDS011;24535;45.508;12.252;2023-01-05T01:19:43;60.47;;;52.58;;
38785;SDS011;24535;45.508;12.252;2023-01-05T01:22:10;57.28;;;50.88;;
38785;SDS011;24535;45.508;12.252;2023-01-05T01:24:36;64.93;;;53.15;;
38785;SDS011;24535;45.508;12.252;2023-01-05T01:27:01;56.38;;;47.20;;
38785;SDS011;24535;45.508;12.252;2023-01-05T01:29:27;48.67;;;42.65;;
38785;SDS011;24535;45.508;12.252;2023-01-05T01:31:53;53.72;;;47.28;;
38785;SDS011;24535;45.508;12.252;2023-01-05T01:34:19;50.92;;;44.58;;
38785;SDS011;24535;45.508;12.252;2023-01-05T01:36:54;48.45;;;42.65;;
38785;SDS011;24535;45.508;12.252;2023-01-05T01:39:20;49.45;;;42.10;;
38785;SDS011;24535;45.508;12.252;2023-01-05T01:41:46;49.97;;;44.38;;
38785;SDS011;24535;45.508;12.252;2023-01-05T01:47:30;50.50;;;44.92;;
38785;SDS011;24535;45.508;12.252;2023-01-05T01:50:02;55.75;;;47.22;;
38785;SDS011;24535;45.508;12.252;2023-01-05T01:52:32;56.85;;;49.35;;
38785;SDS011;24535;45.508;12.252;2023-01-05T01:54:59;46.67;;;40.83;;
38785;SDS011;24535;45.508;12.252;2023-01-05T01:57:28;55.60;;;46.50;;
38785;SDS011;24535;45.508;12.252;2023-01-05T01:59:53;59.75;;;50.40;;
38785;SDS011;24535;45.508;12.252;2023-01-05T02:02:21;51.40;;;44.35;;
38785;SDS011;24535;45.508;12.252;2023-01-05T02:04:47;45.22;;;40.00;;
38785;SDS011;24535;45.508;12.252;2023-01-05T02:07:14;55.60;;;48.88;;
38785;SDS011;24535;45.508;12.252;2023-01-05T02:09:39;56.38;;;48.08;;
38785;SDS011;24535;45.508;12.252;2023-01-05T02:20:49;52.47;;;44.13;;
38785;SDS011;24535;45.508;12.252;2023-01-05T02:26:28;48.75;;;43.05;;
38785;SDS011;24535;45.508;12.252;2023-01-05T02:31:52;55.93;;;48.53;;
38785;SDS011;24535;45.508;12.252;2023-01-05T02:34:27;59.55;;;49.80;;
38785;SDS011;24535;45.508;12.252;2023-01-05T02:40:09;51.88;;;45.63;;
38785;SDS011;24535;45.508;12.252;2023-01-05T02:42:48;48.88;;;43.58;;
38785;SDS011;24535;45.508;12.252;2023-01-05T02:45:16;51.10;;;45.03;;
38785;SDS011;24535;45.508;12.252;2023-01-05T02:47:42;50.17;;;43.85;;
38785;SDS011;24535;45.508;12.252;2023-01-05T02:52:51;51.42;;;43.75;;
38785;SDS011;24535;45.508;12.252;2023-01-05T02:55:40;55.38;;;46.25;;
38785;SDS011;24535;45.508;12.252;2023-01-05T02:58:18;43.22;;;38.58;;
38785;SDS011;24535;45.508;12.252;2023-01-05T03:00:54;41.58;;;37.10;;
38785;SDS011;24535;45.508;12.252;2023-01-05T03:06:14;48.72;;;40.47;;
38785;SDS011;24535;45.508;12.252;2023-01-05T03:08:51;49.20;;;41.72;;
38785;SDS011;24535;45.508;12.252;2023-01-05T03:11:20;43.65;;;39.08;;
38785;SDS011;24535;45.508;12.252;2023-01-05T03:16:53;49.92;;;42.75;;
38785;SDS011;24535;45.508;12.252;2023-01-05T03:19:21;47.87;;;42.67;;
38785;SDS011;24535;45.508;12.252;2023-01-05T03:22:01;45.05;;;38.17;;
38785;SDS011;24535;45.508;12.252;2023-01-05T03:24:49;45.40;;;38.42;;
38785;SDS011;24535;45.508;12.252;2023-01-05T03:27:33;46.08;;;39.20;;
38785;SDS011;24535;45.508;12.252;2023-01-05T03:30:20;48.00;;;40.63;;
38785;SDS011;24535;45.508;12.252;2023-01-05T03:36:25;46.58;;;39.92;;
38785;SDS011;24535;45.508;12.252;2023-01-05T03:38:53;42.45;;;37.80;;
38785;SDS011;24535;45.508;12.252;2023-01-05T03:43:48;42.97;;;35.13;;
38785;SDS011;24535;45.508;12.252;2023-01-05T03:46:18;51.83;;;41.80;;
38785;SDS011;24535;45.508;12.252;2023-01-05T03:48:45;48.22;;;40.25;;
38785;SDS011;24535;45.508;12.252;2023-01-05T03:51:12;46.67;;;41.65;;
38785;SDS011;24535;45.508;12.252;2023-01-05T03:53:40;47.38;;;40.75;;
38785;SDS011;24535;45.508;12.252;2023-01-05T03:56:06;52.70;;;42.30;;
38785;SDS011;24535;45.508;12.252;2023-01-05T03:58:32;53.40;;;43.13;;
38785;SDS011;24535;45.508;12.252;2023-01-05T04:00:57;42.90;;;37.78;;
38785;SDS011;24535;45.508;12.252;2023-01-05T04:03:23;44.33;;;37.63;;
38785;SDS011;24535;45.508;12.252;2023-01-05T04:05:48;42.60;;;35.72;;
38785;SDS011;24535;45.508;12.252;2023-01-05T04:08:14;43.13;;;37.42;;
38785;SDS011;24535;45.508;12.252;2023-01-05T04:10:40;40.85;;;34.65;;
38785;SDS011;24535;45.508;12.252;2023-01-05T04:13:08;39.33;;;35.08;;
38785;SDS011;24535;45.508;12.252;2023-01-05T04:15:34;39.03;;;34.80;;
38785;SDS011;24535;45.508;12.252;2023-01-05T04:17:59;40.85;;;35.17;;
38785;SDS011;24535;45.508;12.252;2023-01-05T04:20:25;37.97;;;33.95;;
38785;SDS011;24535;45.508;12.252;2023-01-05T04:22:50;40.58;;;34.65;;
38785;SDS011;24535;45.508;12.252;2023-01-05T04:25:16;37.22;;;33.13;;
38785;SDS011;24535;45.508;12.252;2023-01-05T04:27:41;45.15;;;36.10;;
38785;SDS011;24535;45.508;12.252;2023-01-05T04:30:07;40.50;;;33.95;;
38785;SDS011;24535;45.508;12.252;2023-01-05T04:36:12;43.38;;;37.00;;
38785;SDS011;24535;45.508;12.252;2023-01-05T04:38:37;37.70;;;32.58;;
38785;SDS011;24535;45.508;12.252;2023-01-05T04:41:03;35.80;;;30.88;;
38785;SDS011;24535;45.508;12.252;2023-01-05T04:43:28;42.30;;;35.22;;
38785;SDS011;24535;45.508;12.252;2023-01-05T04:45:54;43.30;;;34.72;;
38785;SDS011;24535;45.508;12.252;2023-01-05T04:48:19;43.97;;;35.97;;
38785;SDS011;24535;45.508;12.252;2023-01-05T04:53:14;40.83;;;35.25;;
38785;SDS011;24535;45.508;12.252;2023-01-05T04:55:40;42.15;;;36.28;;
38785;SDS011;24535;45.508;12.252;2023-01-05T04:58:05;39.30;;;31.85;;
38785;SDS011;24535;45.508;12.252;2023-01-05T05:00:37;44.70;;;35.58;;
38785;SDS011;24535;45.508;12.252;2023-01-05T05:03:03;42.05;;;34.45;;
38785;SDS011;24535;45.508;12.252;2023-01-05T05:08:08;38.70;;;33.65;;
38785;SDS011;24535;45.508;12.252;2023-01-05T05:10:49;45.80;;;36.67;;
38785;SDS011;24535;45.508;12.252;2023-01-05T05:13:15;40.78;;;34.75;;
38785;SDS011;24535;45.508;12.252;2023-01-05T05:18:31;38.00;;;32.60;;
38785;SDS011;24535;45.508;12.252;2023-01-05T05:20:56;42.80;;;34.50;;
38785;SDS011;24535;45.508;12.252;2023-01-05T05:23:22;47.75;;;40.22;;
38785;SDS011;24535;45.508;12.252;2023-01-05T05:25:50;42.78;;;36.55;;
38785;SDS011;24535;45.508;12.252;2023-01-05T05:28:19;37.78;;;32.10;;
38785;SDS011;24535;45.508;12.252;2023-01-05T05:30:47;41.30;;;32.88;;
38785;SDS011;24535;45.508;12.252;2023-01-05T05:36:36;40.33;;;33.13;;
38785;SDS011;24535;45.508;12.252;2023-01-05T05:42:01;39.45;;;32.67;;
38785;SDS011;24535;45.508;12.252;2023-01-05T05:44:26;46.83;;;36.40;;
38785;SDS011;24535;45.508;12.252;2023-01-05T05:46:52;41.88;;;35.45;;
38785;SDS011;24535;45.508;12.252;2023-01-05T05:52:34;43.63;;;37.95;;
38785;SDS011;24535;45.508;12.252;2023-01-05T05:54:59;40.05;;;34.10;;
38785;SDS011;24535;45.508;12.252;2023-01-05T05:57:25;42.28;;;35.78;;
38785;SDS011;24535;45.508;12.252;2023-01-05T05:59:51;42.75;;;35.97;;
38785;SDS011;24535;45.508;12.252;2023-01-05T06:02:16;39.92;;;32.30;;
38785;SDS011;24535;45.508;12.252;2023-01-05T06:04:43;42.42;;;35.83;;
38785;SDS011;24535;45.508;12.252;2023-01-05T06:07:09;43.47;;;36.17;;
38785;SDS011;24535;45.508;12.252;2023-01-05T06:09:34;51.53;;;41.13;;
38785;SDS011;24535;45.508;12.252;2023-01-05T06:12:00;39.63;;;35.28;;
38785;SDS011;24535;45.508;12.252;2023-01-05T06:14:25;45.92;;;38.17;;
38785;SDS011;24535;45.508;12.252;2023-01-05T06:16:51;42.97;;;36.08;;
38785;SDS011;24535;45.508;12.252;2023-01-05T06:19:16;43.33;;;36.78;;
38785;SDS011;24535;45.508;12.252;2023-01-05T06:22:16;40.17;;;32.70;;
38785;SDS011;24535;45.508;12.252;2023-01-05T06:24:42;42.30;;;34.63;;
38785;SDS011;24535;45.508;12.252;2023-01-05T06:27:07;39.88;;;32.88;;
38785;SDS011;24535;45.508;12.252;2023-01-05T06:29:34;42.30;;;34.28;;
38785;SDS011;24535;45.508;12.252;2023-01-05T06:32:00;41.08;;;33.53;;
38785;SDS011;24535;45.508;12.252;2023-01-05T06:34:25;37.28;;;32.13;;
38785;SDS011;24535;45.508;12.252;2023-01-05T06:36:54;45.50;;;36.67;;
38785;SDS011;24535;45.508;12.252;2023-01-05T06:41:58;41.15;;;33.58;;
38785;SDS011;24535;45.508;12.252;2023-01-05T06:44:24;42.85;;;36.45;;
38785;SDS011;24535;45.508;12.252;2023-01-05T06:46:49;46.22;;;36.72;;
38785;SDS011;24535;45.508;12.252;2023-01-05T07:02:03;50.33;;;40.67;;
38785;SDS011;24535;45.508;12.252;2023-01-05T07:04:32;43.53;;;35.08;;
38785;SDS011;24535;45.508;12.252;2023-01-05T07:06:57;49.53;;;37.95;;
38785;SDS011;24535;45.508;12.252;2023-01-05T07:09:41;42.58;;;36.85;;
38785;SDS011;24535;45.508;12.252;2023-01-05T07:12:07;42.30;;;34.70;;
38785;SDS011;24535;45.508;12.252;2023-01-05T07:14:32;40.63;;;33.88;;
38785;SDS011;24535;45.508;12.252;2023-01-05T07:16:58;41.63;;;33.83;;
38785;SDS011;24535;45.508;12.252;2023-01-05T07:19:24;45.50;;;37.92;;
38785;SDS011;24535;45.508;12.252;2023-01-05T07:21:50;38.58;;;34.40;;
38785;SDS011;24535;45.508;12.252;2023-01-05T07:24:15;46.95;;;38.90;;
38785;SDS011;24535;45.508;12.252;2023-01-05T07:29:19;42.97;;;36.58;;
38785;SDS011;24535;45.508;12.252;2023-01-05T07:31:47;44.78;;;36.85;;
38785;SDS011;24535;45.508;12.252;2023-01-05T07:34:16;45.15;;;36.47;;
38785;SDS011;24535;45.508;12.252;2023-01-05T07:36:45;41.22;;;33.47;;
38785;SDS011;24535;45.508;12.252;2023-01-05T07:39:10;41.72;;;35.38;;
38785;SDS011;24535;45.508;12.252;2023-01-05T07:41:35;48.75;;;39.38;;
38785;SDS011;24535;45.508;12.252;2023-01-05T07:44:04;43.80;;;37.00;;
38785;SDS011;24535;45.508;12.252;2023-01-05T07:46:48;46.00;;;39.28;;
38785;SDS011;24535;45.508;12.252;2023-01-05T07:49:13;47.80;;;40.33;;
38785;SDS011;24535;45.508;12.252;2023-01-05T07:51:39;48.70;;;37.97;;
38785;SDS011;24535;45.508;12.252;2023-01-05T07:54:05;46.35;;;38.92;;
38785;SDS011;24535;45.508;12.252;2023-01-05T07:56:30;37.30;;;32.55;;
38785;SDS011;24535;45.508;12.252;2023-01-05T07:58:56;44.47;;;37.75;;
38785;SDS011;24535;45.508;12.252;2023-01-05T08:01:21;43.70;;;37.53;;
38785;SDS011;24535;45.508;12.252;2023-01-05T08:03:47;42.75;;;36.15;;
38785;SDS011;24535;45.508;12.252;2023-01-05T08:06:13;49.90;;;41.50;;
38785;SDS011;24535;45.508;12.252;2023-01-05T08:11:20;51.50;;;39.50;;
38785;SDS011;24535;45.508;12.252;2023-01-05T08:16:52;42.00;;;36.08;;
38785;SDS011;24535;45.508;12.252;2023-01-05T08:19:17;39.30;;;34.60;;
38785;SDS011;24535;45.508;12.252;2023-01-05T08:24:28;40.35;;;34.80;;
38785;SDS011;24535;45.508;12.252;2023-01-05T08:33:40;45.00;;;37.10;;
38785;SDS011;24535;45.508;12.252;2023-01-05T08:36:10;47.13;;;40.50;;
38785;SDS011;24535;45.508;12.252;2023-01-05T08:41:27;49.33;;;39.70;;
38785;SDS011;24535;45.508;12.252;2023-01-05T08:46:23;50.03;;;39.67;;
38785;SDS011;24535;45.508;12.252;2023-01-05T08:58:08;50.67;;;42.42;;
38785;SDS011;24535;45.508;12.252;2023-01-05T09:00:34;49.50;;;39.72;;
38785;SDS011;24535;45.508;12.252;2023-01-05T09:05:44;44.50;;;34.95;;
38785;SDS011;24535;45.508;12.252;2023-01-05T09:08:15;43.42;;;36.10;;
38785;SDS011;24535;45.508;12.252;2023-01-05T09:10:41;48.58;;;40.40;;
38785;SDS011;24535;45.508;12.252;2023-01-05T09:13:09;39.33;;;31.13;;
38785;SDS011;24535;45.508;12.252;2023-01-05T09:18:58;43.60;;;34.78;;
38785;SDS011;24535;45.508;12.252;2023-01-05T09:21:24;44.63;;;37.45;;
38785;SDS011;24535;45.508;12.252;2023-01-05T09:29:49;37.38;;;31.77;;
38785;SDS011;24535;45.508;12.252;2023-01-05T09:32:14;37.25;;;31.50;;
38785;SDS011;24535;45.508;12.252;2023-01-05T09:34:40;46.13;;;36.33;;
38785;SDS011;24535;45.508;12.252;2023-01-05T09:37:11;36.15;;;30.90;;
38785;SDS011;24535;45.508;12.252;2023-01-05T09:39:46;40.78;;;34.55;;
38785;SDS011;24535;45.508;12.252;2023-01-05T09:42:19;36.67;;;32.05;;
38785;SDS011;24535;45.508;12.252;2023-01-05T09:44:51;36.78;;;30.58;;
38785;SDS011;24535;45.508;12.252;2023-01-05T09:55:45;32.88;;;29.25;;
38785;SDS011;24535;45.508;12.252;2023-01-05T10:01:59;43.38;;;34.63;;
38785;SDS011;24535;45.508;12.252;2023-01-05T10:13:03;34.88;;;29.13;;
38785;SDS011;24535;45.508;12.252;2023-01-05T10:15:45;38.63;;;31.00;;
38785;SDS011;24535;45.508;12.252;2023-01-05T10:18:14;46.47;;;35.80;;
38785;SDS011;24535;45.508;12.252;2023-01-05T10:23:42;39.78;;;33.65;;
38785;SDS011;24535;45.508;12.252;2023-01-05T10:26:37;268.23;;;48.20;;
38785;SDS011;24535;45.508;12.252;2023-01-05T10:29:10;48.35;;;24.48;;
38785;SDS011;24535;45.508;12.252;2023-01-05T10:45:32;40.22;;;30.58;;
38785;SDS011;24535;45.508;12.252;2023-01-05T10:47:58;45.78;;;31.25;;
38785;SDS011;24535;45.508;12.252;2023-01-05T10:53:14;39.17;;;31.10;;
38785;SDS011;24535;45.508;12.252;2023-01-05T10:58:32;41.65;;;31.55;;
38785;SDS011;24535;45.508;12.252;2023-01-05T11:01:02;38.13;;;29.83;;
38785;SDS011;24535;45.508;12.252;2023-01-05T11:03:39;41.28;;;32.88;;
38785;SDS011;24535;45.508;12.252;2023-01-05T11:06:08;37.97;;;29.60;;
38785;SDS011;24535;45.508;12.252;2023-01-05T11:08:44;34.75;;;27.63;;
38785;SDS011;24535;45.508;12.252;2023-01-05T11:11:10;41.75;;;34.03;;
38785;SDS011;24535;45.508;12.252;2023-01-05T11:13:49;36.90;;;29.15;;
38785;SDS011;24535;45.508;12.252;2023-01-05T11:16:45;37.72;;;29.48;;
38785;SDS011;24535;45.508;12.252;2023-01-05T11:19:12;44.42;;;34.38;;
38785;SDS011;24535;45.508;12.252;2023-01-05T11:21:40;38.13;;;28.98;;
38785;SDS011;24535;45.508;12.252;2023-01-05T11:26:56;35.28;;;28.75;;
38785;SDS011;24535;45.508;12.252;2023-01-05T11:29:27;35.72;;;29.08;;
38785;SDS011;24535;45.508;12.252;2023-01-05T11:39:40;38.17;;;30.60;;
38785;SDS011;24535;45.508;12.252;2023-01-05T11:47:38;41.13;;;33.45;;
38785;SDS011;24535;45.508;12.252;2023-01-05T11:52:34;41.40;;;33.20;;
38785;SDS011;24535;45.508;12.252;2023-01-05T11:57:48;42.80;;;34.15;;
38785;SDS011;24535;45.508;12.252;2023-01-05T12:00:38;45.67;;;35.70;;
38785;SDS011;24535;45.508;12.252;2023-01-05T12:05:51;43.38;;;33.50;;
38785;SDS011;24535;45.508;12.252;2023-01-05T12:08:22;35.15;;;29.58;;
38785;SDS011;24535;45.508;12.252;2023-01-05T12:21:42;43.03;;;33.10;;
38785;SDS011;24535;45.508;12.252;2023-01-05T12:35:22;45.10;;;32.45;;
38785;SDS011;24535;45.508;12.252;2023-01-05T12:43:14;39.08;;;29.00;;
38785;SDS011;24535;45.508;12.252;2023-01-05T12:48:46;39.67;;;29.00;;
38785;SDS011;24535;45.508;12.252;2023-01-05T12:56:44;32.28;;;25.33;;
38785;SDS011;24535;45.508;12.252;2023-01-05T13:01:54;33.05;;;26.67;;
38785;SDS011;24535;45.508;12.252;2023-01-05T13:04:39;32.78;;;24.70;;
38785;SDS011;24535;45.508;12.252;2023-01-05T13:07:55;29.35;;;23.38;;
38785;SDS011;24535;45.508;12.252;2023-01-05T13:09:56;35.53;;;27.70;;
38785;SDS011;24535;45.508;12.252;2023-01-05T13:12:25;38.17;;;29.95;;
38785;SDS011;24535;45.508;12.252;2023-01-05T13:15:00;37.97;;;31.35;;
38785;SDS011;24535;45.508;12.252;2023-01-05T13:17:47;40.80;;;29.45;;
38785;SDS011;24535;45.508;12.252;2023-01-05T13:23:00;34.85;;;27.60;;
38785;SDS011;24535;45.508;12.252;2023-01-05T13:25:31;41.50;;;29.60;;
38785;SDS011;24535;45.508;12.252;2023-01-05T13:28:14;36.08;;;28.60;;
38785;SDS011;24535;45.508;12.252;2023-01-05T13:30:45;42.05;;;28.58;;
38785;SDS011;24535;45.508;12.252;2023-01-05T13:44:29;32.90;;;24.02;;
38785;SDS011;24535;45.508;12.252;2023-01-05T13:55:27;39.70;;;29.00;;
38785;SDS011;24535;45.508;12.252;2023-01-05T13:57:54;37.10;;;26.95;;
38785;SDS011;24535;45.508;12.252;2023-01-05T14:00:29;38.83;;;29.30;;
38785;SDS011;24535;45.508;12.252;2023-01-05T14:03:05;41.30;;;30.75;;
38785;SDS011;24535;45.508;12.252;2023-01-05T14:05:48;37.17;;;27.80;;
38785;SDS011;24535;45.508;12.252;2023-01-05T14:08:26;43.25;;;30.10;;
38785;SDS011;24535;45.508;12.252;2023-01-05T14:11:07;37.20;;;26.33;;
38785;SDS011;24535;45.508;12.252;2023-01-05T14:16:47;38.85;;;28.05;;
38785;SDS011;24535;45.508;12.252;2023-01-05T14:19:18;41.80;;;29.80;;
38785;SDS011;24535;45.508;12.252;2023-01-05T14:24:37;39.80;;;29.50;;
38785;SDS011;24535;45.508;12.252;2023-01-05T14:32:14;38.97;;;29.13;;
38785;SDS011;24535;45.508;12.252;2023-01-05T14:35:04;40.00;;;29.05;;
38785;SDS011;24535;45.508;12.252;2023-01-05T14:37:38;38.58;;;28.63;;
38785;SDS011;24535;45.508;12.252;2023-01-05T14:40:14;36.78;;;26.48;;
38785;SDS011;24535;45.508;12.252;2023-01-05T14:43:01;39.95;;;30.10;;
38785;SDS011;24535;45.508;12.252;2023-01-05T14:45:31;40.30;;;29.50;;
38785;SDS011;24535;45.508;12.252;2023-01-05T14:48:00;38.28;;;27.88;;
38785;SDS011;24535;45.508;12.252;2023-01-05T14:50:39;38.05;;;27.90;;
38785;SDS011;24535;45.508;12.252;2023-01-05T15:01:16;41.47;;;28.85;;
38785;SDS011;24535;45.508;12.252;2023-01-05T15:03:54;40.35;;;28.60;;
38785;SDS011;24535;45.508;12.252;2023-01-05T15:06:37;45.35;;;30.60;;
38785;SDS011;24535;45.508;12.252;2023-01-05T15:09:13;34.97;;;27.67;;
38785;SDS011;24535;45.508;12.252;2023-01-05T15:39:50;39.95;;;28.50;;
38785;SDS011;24535;45.508;12.252;2023-01-05T15:42:27;49.50;;;31.45;;
38785;SDS011;24535;45.508;12.252;2023-01-05T15:45:06;43.35;;;31.60;;
38785;SDS011;24535;45.508;12.252;2023-01-05T15:47:41;48.90;;;32.47;;
38785;SDS011;24535;45.508;12.252;2023-01-05T15:50:15;43.00;;;31.00;;
38785;SDS011;24535;45.508;12.252;2023-01-05T15:52:50;49.00;;;33.15;;
38785;SDS011;24535;45.508;12.252;2023-01-05T15:55:17;50.30;;;33.58;;
38785;SDS011;24535;45.508;12.252;2023-01-05T15:58:00;48.38;;;33.00;;
38785;SDS011;24535;45.508;12.252;2023-01-05T16:00:29;46.10;;;30.88;;
38785;SDS011;24535;45.508;12.252;2023-01-05T16:02:56;50.88;;;32.42;;
38785;SDS011;24535;45.508;12.252;2023-01-05T16:05:25;46.97;;;32.97;;
38785;SDS011;24535;45.508;12.252;2023-01-05T16:08:03;48.65;;;31.58;;
38785;SDS011;24535;45.508;12.252;2023-01-05T16:13:08;38.28;;;28.65;;
38785;SDS011;24535;45.508;12.252;2023-01-05T16:15:37;42.28;;;28.92;;
38785;SDS011;24535;45.508;12.252;2023-01-05T16:18:05;44.17;;;29.50;;
38785;SDS011;24535;45.508;12.252;2023-01-05T16:20:32;46.08;;;31.52;;
38785;SDS011;24535;45.508;12.252;2023-01-05T16:25:51;43.55;;;29.80;;
38785;SDS011;24535;45.508;12.252;2023-01-05T16:28:21;46.15;;;32.20;;
38785;SDS011;24535;45.508;12.252;2023-01-05T16:30:48;51.30;;;33.05;;
38785;SDS011;24535;45.508;12.252;2023-01-05T16:35:51;48.97;;;31.77;;
38785;SDS011;24535;45.508;12.252;2023-01-05T16:38:29;52.22;;;34.10;;
38785;SDS011;24535;45.508;12.252;2023-01-05T16:51:07;50.42;;;32.38;;
38785;SDS011;24535;45.508;12.252;2023-01-05T16:53:55;47.17;;;31.60;;
38785;SDS011;24535;45.508;12.252;2023-01-05T16:58:56;49.88;;;34.83;;
38785;SDS011;24535;45.508;12.252;2023-01-05T17:01:43;49.45;;;34.92;;
38785;SDS011;24535;45.508;12.252;2023-01-05T17:04:09;48.17;;;31.90;;
38785;SDS011;24535;45.508;12.252;2023-01-05T17:06:39;45.60;;;32.42;;
38785;SDS011;24535;45.508;12.252;2023-01-05T17:09:18;50.53;;;34.92;;
38785;SDS011;24535;45.508;12.252;2023-01-05T17:11:47;49.08;;;34.50;;
38785;SDS011;24535;45.508;12.252;2023-01-05T17:14:13;51.15;;;36.55;;
38785;SDS011;24535;45.508;12.252;2023-01-05T17:16:40;59.42;;;35.75;;
38785;SDS011;24535;45.508;12.252;2023-01-05T17:19:11;50.85;;;35.35;;
38785;SDS011;24535;45.508;12.252;2023-01-05T17:21:41;54.75;;;36.50;;
38785;SDS011;24535;45.508;12.252;2023-01-05T17:24:08;57.28;;;38.58;;
38785;SDS011;24535;45.508;12.252;2023-01-05T17:26:39;59.90;;;39.53;;
38785;SDS011;24535;45.508;12.252;2023-01-05T17:29:07;58.35;;;41.15;;
38785;SDS011;24535;45.508;12.252;2023-01-05T17:31:39;62.38;;;40.90;;
38785;SDS011;24535;45.508;12.252;2023-01-05T17:34:05;64.30;;;41.63;;
38785;SDS011;24535;45.508;12.252;2023-01-05T17:36:31;58.90;;;38.35;;
38785;SDS011;24535;45.508;12.252;2023-01-05T17:38:59;58.15;;;39.67;;
38785;SDS011;24535;45.508;12.252;2023-01-05T17:41:24;56.10;;;38.30;;
38785;SDS011;24535;45.508;12.252;2023-01-05T17:43:50;55.30;;;37.22;;
38785;SDS011;24535;45.508;12.252;2023-01-05T17:46:21;49.30;;;35.72;;
38785;SDS011;24535;45.508;12.252;2023-01-05T17:48:52;56.63;;;35.08;;
38785;SDS011;24535;45.508;12.252;2023-01-05T17:51:18;49.63;;;34.40;;
38785;SDS011;24535;45.508;12.252;2023-01-05T17:53:44;54.88;;;35.75;;
38785;SDS011;24535;45.508;12.252;2023-01-05T17:56:09;52.95;;;35.42;;
38785;SDS011;24535;45.508;12.252;2023-01-05T17:58:34;53.28;;;35.28;;
38785;SDS011;24535;45.508;12.252;2023-01-05T18:01:00;48.33;;;33.15;;
38785;SDS011;24535;45.508;12.252;2023-01-05T18:03:27;52.35;;;34.63;;
38785;SDS011;24535;45.508;12.252;2023-01-05T18:05:53;52.72;;;34.92;;
38785;SDS011;24535;45.508;12.252;2023-01-05T18:08:19;54.60;;;35.00;;
38785;SDS011;24535;45.508;12.252;2023-01-05T18:10:45;51.97;;;34.67;;
38785;SDS011;24535;45.508;12.252;2023-01-05T18:13:11;56.25;;;35.03;;
38785;SDS011;24535;45.508;12.252;2023-01-05T18:15:40;57.22;;;37.08;;
38785;SDS011;24535;45.508;12.252;2023-01-05T18:18:07;61.47;;;36.78;;
38785;SDS011;24535;45.508;12.252;2023-01-05T18:20:33;57.38;;;36.70;;
38785;SDS011;24535;45.508;12.252;2023-01-05T18:22:59;55.35;;;36.90;;
38785;SDS011;24535;45.508;12.252;2023-01-05T18:25:24;53.22;;;37.38;;
38785;SDS011;24535;45.508;12.252;2023-01-05T18:27:50;60.78;;;37.50;;
38785;SDS011;24535;45.508;12.252;2023-01-05T18:30:16;58.13;;;37.45;;
38785;SDS011;24535;45.508;12.252;2023-01-05T18:32:41;60.78;;;39.80;;
38785;SDS011;24535;45.508;12.252;2023-01-05T18:35:08;58.92;;;40.22;;
38785;SDS011;24535;45.508;12.252;2023-01-05T18:37:34;57.35;;;40.25;;
38785;SDS011;24535;45.508;12.252;2023-01-05T18:39:59;59.17;;;37.35;;
38785;SDS011;24535;45.508;12.252;2023-01-05T18:42:25;59.45;;;41.30;;
38785;SDS011;24535;45.508;12.252;2023-01-05T18:44:50;63.63;;;41.85;;
38785;SDS011;24535;45.508;12.252;2023-01-05T18:47:17;61.58;;;41.97;;
38785;SDS011;24535;45.508;12.252;2023-01-05T18:49:42;63.53;;;42.30;;
38785;SDS011;24535;45.508;12.252;2023-01-05T18:52:08;62.70;;;41.67;;
38785;SDS011;24535;45.508;12.252;2023-01-05T18:54:34;62.45;;;41.22;;
38785;SDS011;24535;45.508;12.252;2023-01-05T18:57:00;56.72;;;39.75;;
38785;SDS011;24535;45.508;12.252;2023-01-05T18:59:25;60.45;;;40.08;;
38785;SDS011;24535;45.508;12.252;2023-01-05T19:01:51;58.63;;;40.92;;
38785;SDS011;24535;45.508;12.252;2023-01-05T19:04:16;62.03;;;41.70;;
38785;SDS011;24535;45.508;12.252;2023-01-05T19:06:42;60.03;;;40.97;;
38785;SDS011;24535;45.508;12.252;2023-01-05T19:09:08;62.83;;;41.03;;
38785;SDS011;24535;45.508;12.252;2023-01-05T19:11:35;61.78;;;41.85;;
38785;SDS011;24535;45.508;12.252;2023-01-05T19:14:02;64.88;;;48.40;;
38785;SDS011;24535;45.508;12.252;2023-01-05T19:16:29;63.38;;;44.95;;
38785;SDS011;24535;45.508;12.252;2023-01-05T19:18:58;67.78;;;46.80;;
38785;SDS011;24535;45.508;12.252;2023-01-05T19:21:29;74.18;;;50.00;;
38785;SDS011;24535;45.508;12.252;2023-01-05T19:23:56;85.25;;;54.97;;
38785;SDS011;24535;45.508;12.252;2023-01-05T19:26:24;76.10;;;51.88;;
38785;SDS011;24535;45.508;12.252;2023-01-05T19:28:52;77.97;;;54.28;;
38785;SDS011;24535;45.508;12.252;2023-01-05T19:31:18;72.90;;;51.35;;
38785;SDS011;24535;45.508;12.252;2023-01-05T19:33:50;77.30;;;51.80;;